sensor_id;sensor_type;location;lat;lon;timestamp;pressure;altitude;pressure_sealevel;temperature;humidity
23473;BME280;11909;52.516;13.564;2023-03-25T00:00:37;99677.06;;;8.63;90.32
23473;BME280;11909;52.516;13.564;2023-03-25T00:03:05;99683.44;;;8.78;90.91
23473;BME280;11909;52.516;13.564;2023-03-25T00:05:38;99682.69;;;8.72;90.61
23473;BME280;11909;52.516;13.564;2023-03-25T00:08:06;99683.81;;;8.71;91.45
23473;BME280;11909;52.516;13.564;2023-03-25T00:10:33;99680.59;;;8.64;92.21
23473;BME280;11909;52.516;13.564;2023-03-25T00:13:01;99674.03;;;8.65;92.99
23473;BME280;11909;52.516;13.564;2023-03-25T00:15:30;99684.97;;;8.65;92.65
23473;BME280;11909;52.516;13.564;2023-03-25T00:17:59;99679.72;;;8.68;92.89
23473;BME280;11909;52.516;13.564;2023-03-25T00:20:27;99677.06;;;8.63;93.72
23473;BME280;11909;52.516;13.564;2023-03-25T00:22:56;99661.16;;;8.65;93.40
23473;BME280;11909;52.516;13.564;2023-03-25T00:25:24;99665.28;;;8.63;93.57
23473;BME280;11909;52.516;13.564;2023-03-25T00:27:51;99672.81;;;8.52;94.27
23473;BME280;11909;52.516;13.564;2023-03-25T00:30:19;99667.69;;;8.45;94.73
23473;BME280;11909;52.516;13.564;2023-03-25T00:32:47;99661.13;;;8.46;94.87
23473;BME280;11909;52.516;13.564;2023-03-25T00:35:18;99658.03;;;8.53;95.08
23473;BME280;11909;52.516;13.564;2023-03-25T00:37:47;99663.03;;;8.45;94.79
23473;BME280;11909;52.516;13.564;2023-03-25T00:40:25;99659.25;;;8.41;95.62
23473;BME280;11909;52.516;13.564;2023-03-25T00:42:53;99665.19;;;8.49;95.37
23473;BME280;11909;52.516;13.564;2023-03-25T00:45:22;99663.53;;;8.47;95.02
23473;BME280;11909;52.516;13.564;2023-03-25T00:47:50;99671.22;;;8.45;94.98
23473;BME280;11909;52.516;13.564;2023-03-25T00:50:18;99672.06;;;8.46;95.55
23473;BME280;11909;52.516;13.564;2023-03-25T00:52:46;99675.59;;;8.46;95.16
23473;BME280;11909;52.516;13.564;2023-03-25T00:55:14;99678.28;;;8.52;94.12
23473;BME280;11909;52.516;13.564;2023-03-25T00:57:44;99679.13;;;8.52;94.59
23473;BME280;11909;52.516;13.564;2023-03-25T01:00:14;99674.63;;;8.37;95.29
23473;BME280;11909;52.516;13.564;2023-03-25T01:02:43;99682.38;;;8.54;94.84
23473;BME280;11909;52.516;13.564;2023-03-25T01:05:12;99676.78;;;8.40;94.99
23473;BME280;11909;52.516;13.564;2023-03-25T01:07:39;99673.88;;;8.31;96.12
23473;BME280;11909;52.516;13.564;2023-03-25T01:10:08;99678.97;;;8.38;95.76
23473;BME280;11909;52.516;13.564;2023-03-25T01:12:37;99681.94;;;8.42;95.03
23473;BME280;11909;52.516;13.564;2023-03-25T01:15:09;99681.19;;;8.36;95.17
23473;BME280;11909;52.516;13.564;2023-03-25T01:17:37;99680.84;;;8.43;94.90
23473;BME280;11909;52.516;13.564;2023-03-25T01:20:06;99680.72;;;8.29;95.47
23473;BME280;11909;52.516;13.564;2023-03-25T01:22:34;99670.38;;;8.26;95.77
23473;BME280;11909;52.516;13.564;2023-03-25T01:25:02;99675.63;;;8.22;95.87
23473;BME280;11909;52.516;13.564;2023-03-25T01:27:30;99668.75;;;8.25;95.94
23473;BME280;11909;52.516;13.564;2023-03-25T01:29:58;99666.59;;;8.22;95.95
23473;BME280;11909;52.516;13.564;2023-03-25T01:32:27;99657.81;;;8.25;95.60
23473;BME280;11909;52.516;13.564;2023-03-25T01:34:55;99654.88;;;8.21;95.87
23473;BME280;11909;52.516;13.564;2023-03-25T01:37:23;99651.13;;;8.12;95.89
23473;BME280;11909;52.516;13.564;2023-03-25T01:39:52;99648.28;;;8.22;96.30
23473;BME280;11909;52.516;13.564;2023-03-25T01:42:20;99646.28;;;8.28;95.46
23473;BME280;11909;52.516;13.564;2023-03-25T01:45:15;99636.66;;;8.11;96.10
23473;BME280;11909;52.516;13.564;2023-03-25T01:47:48;99636.69;;;8.06;96.52
23473;BME280;11909;52.516;13.564;2023-03-25T01:50:19;99631.06;;;8.22;95.89
23473;BME280;11909;52.516;13.564;2023-03-25T01:52:49;99639.25;;;8.22;95.80
23473;BME280;11909;52.516;13.564;2023-03-25T01:55:18;99633.53;;;8.23;95.78
23473;BME280;11909;52.516;13.564;2023-03-25T01:57:47;99639.41;;;8.11;96.24
23473;BME280;11909;52.516;13.564;2023-03-25T02:00:16;99640.69;;;8.19;96.22
23473;BME280;11909;52.516;13.564;2023-03-25T02:02:46;99636.97;;;8.29;95.61
23473;BME280;11909;52.516;13.564;2023-03-25T02:05:19;99633.53;;;8.23;95.72
23473;BME280;11909;52.516;13.564;2023-03-25T02:07:48;99637.69;;;8.15;96.31
23473;BME280;11909;52.516;13.564;2023-03-25T02:10:16;99638.31;;;8.07;96.85
23473;BME280;11909;52.516;13.564;2023-03-25T02:12:44;99632.34;;;8.05;97.10
23473;BME280;11909;52.516;13.564;2023-03-25T02:15:14;99625.03;;;8.00;97.50
23473;BME280;11909;52.516;13.564;2023-03-25T02:18:07;99624.38;;;8.09;96.65
23473;BME280;11909;52.516;13.564;2023-03-25T02:21:02;99613.38;;;8.14;96.66
23473;BME280;11909;52.516;13.564;2023-03-25T02:23:56;99616.44;;;8.12;96.69
23473;BME280;11909;52.516;13.564;2023-03-25T02:26:59;99603.19;;;8.00;97.37
23473;BME280;11909;52.516;13.564;2023-03-25T02:29:56;99600.66;;;8.04;97.33
23473;BME280;11909;52.516;13.564;2023-03-25T02:32:44;99601.72;;;8.08;97.22
23473;BME280;11909;52.516;13.564;2023-03-25T02:35:33;99599.69;;;8.19;96.52
23473;BME280;11909;52.516;13.564;2023-03-25T02:38:15;99594.88;;;8.30;96.26
23473;BME280;11909;52.516;13.564;2023-03-25T02:40:52;99592.63;;;8.13;96.62
23473;BME280;11909;52.516;13.564;2023-03-25T02:43:27;99601.59;;;8.18;96.90
23473;BME280;11909;52.516;13.564;2023-03-25T02:46:02;99595.53;;;8.22;96.44
23473;BME280;11909;52.516;13.564;2023-03-25T02:48:36;99587.91;;;8.18;96.63
23473;BME280;11909;52.516;13.564;2023-03-25T02:51:11;99582.19;;;8.20;96.54
23473;BME280;11909;52.516;13.564;2023-03-25T02:53:44;99576.31;;;8.27;96.86
23473;BME280;11909;52.516;13.564;2023-03-25T02:56:15;99585.63;;;8.26;96.18
23473;BME280;11909;52.516;13.564;2023-03-25T02:58:48;99578.69;;;8.14;96.95
23473;BME280;11909;52.516;13.564;2023-03-25T03:01:16;99576.72;;;8.20;96.69
23473;BME280;11909;52.516;13.564;2023-03-25T03:03:44;99567.44;;;8.16;96.82
23473;BME280;11909;52.516;13.564;2023-03-25T03:06:15;99574.19;;;8.24;97.22
23473;BME280;11909;52.516;13.564;2023-03-25T03:09:01;99562.16;;;8.25;96.98
23473;BME280;11909;52.516;13.564;2023-03-25T03:11:36;99565.53;;;8.16;96.62
23473;BME280;11909;52.516;13.564;2023-03-25T03:14:19;99563.91;;;8.15;97.25
23473;BME280;11909;52.516;13.564;2023-03-25T03:16:54;99567.41;;;8.21;97.35
23473;BME280;11909;52.516;13.564;2023-03-25T03:19:32;99566.44;;;8.31;96.23
23473;BME280;11909;52.516;13.564;2023-03-25T03:22:13;99562.03;;;8.35;96.13
23473;BME280;11909;52.516;13.564;2023-03-25T03:24:52;99570.25;;;8.30;96.27
23473;BME280;11909;52.516;13.564;2023-03-25T03:27:27;99574.41;;;8.27;96.91
23473;BME280;11909;52.516;13.564;2023-03-25T03:30:04;99565.34;;;8.32;96.53
23473;BME280;11909;52.516;13.564;2023-03-25T03:32:38;99569.84;;;8.42;95.80
23473;BME280;11909;52.516;13.564;2023-03-25T03:35:12;99568.97;;;8.46;95.86
23473;BME280;11909;52.516;13.564;2023-03-25T03:37:46;99583.97;;;8.49;96.45
23473;BME280;11909;52.516;13.564;2023-03-25T03:40:20;99586.06;;;8.57;97.44
23473;BME280;11909;52.516;13.564;2023-03-25T03:42:53;99588.50;;;8.59;98.75
23473;BME280;11909;52.516;13.564;2023-03-25T03:45:25;99582.13;;;8.44;100.00
23473;BME280;11909;52.516;13.564;2023-03-25T03:47:56;99582.34;;;8.48;100.00
23473;BME280;11909;52.516;13.564;2023-03-25T03:50:26;99578.41;;;8.35;100.00
23473;BME280;11909;52.516;13.564;2023-03-25T03:53:01;99579.81;;;8.32;100.00
23473;BME280;11909;52.516;13.564;2023-03-25T03:55:34;99579.06;;;8.27;100.00
23473;BME280;11909;52.516;13.564;2023-03-25T03:58:08;99568.13;;;8.27;100.00
23473;BME280;11909;52.516;13.564;2023-03-25T04:00:39;99572.72;;;8.31;100.00
23473;BME280;11909;52.516;13.564;2023-03-25T04:03:13;99573.97;;;8.20;100.00
23473;BME280;11909;52.516;13.564;2023-03-25T04:05:45;99572.91;;;8.16;100.00
23473;BME280;11909;52.516;13.564;2023-03-25T04:08:21;99571.00;;;8.16;100.00
23473;BME280;11909;52.516;13.564;2023-03-25T04:10:55;99568.28;;;8.16;100.00
23473;BME280;11909;52.516;13.564;2023-03-25T04:13:28;99569.38;;;8.15;100.00
23473;BME280;11909;52.516;13.564;2023-03-25T04:15:58;99582.53;;;8.13;100.00
23473;BME280;11909;52.516;13.564;2023-03-25T04:18:26;99563.16;;;8.10;100.00
23473;BME280;11909;52.516;13.564;2023-03-25T04:20:54;99568.88;;;8.13;100.00
23473;BME280;11909;52.516;13.564;2023-03-25T04:23:22;99564.16;;;8.19;100.00
23473;BME280;11909;52.516;13.564;2023-03-25T04:25:50;99572.63;;;8.17;100.00
23473;BME280;11909;52.516;13.564;2023-03-25T04:28:20;99571.53;;;8.18;100.00
23473;BME280;11909;52.516;13.564;2023-03-25T04:30:49;99571.81;;;8.17;100.00
23473;BME280;11909;52.516;13.564;2023-03-25T04:33:20;99575.59;;;8.21;100.00
23473;BME280;11909;52.516;13.564;2023-03-25T04:35:48;99578.03;;;8.23;100.00
23473;BME280;11909;52.516;13.564;2023-03-25T04:38:17;99570.84;;;8.27;100.00
23473;BME280;11909;52.516;13.564;2023-03-25T04:40:45;99569.31;;;8.21;100.00
23473;BME280;11909;52.516;13.564;2023-03-25T04:43:13;99571.25;;;8.20;100.00
23473;BME280;11909;52.516;13.564;2023-03-25T04:45:43;99579.13;;;8.22;100.00
23473;BME280;11909;52.516;13.564;2023-03-25T04:48:20;99559.13;;;8.26;100.00
23473;BME280;11909;52.516;13.564;2023-03-25T04:50:49;99571.09;;;8.30;100.00
23473;BME280;11909;52.516;13.564;2023-03-25T04:53:18;99571.69;;;8.27;100.00
23473;BME280;11909;52.516;13.564;2023-03-25T04:55:45;99569.47;;;8.29;100.00
23473;BME280;11909;52.516;13.564;2023-03-25T04:58:15;99573.00;;;8.30;100.00
23473;BME280;11909;52.516;13.564;2023-03-25T05:00:46;99569.06;;;8.17;100.00
23473;BME280;11909;52.516;13.564;2023-03-25T05:03:16;99565.53;;;8.16;100.00
23473;BME280;11909;52.516;13.564;2023-03-25T05:05:49;99560.34;;;8.15;100.00
23473;BME280;11909;52.516;13.564;2023-03-25T05:08:17;99564.19;;;8.14;100.00
23473;BME280;11909;52.516;13.564;2023-03-25T05:10:47;99559.72;;;8.23;100.00
23473;BME280;11909;52.516;13.564;2023-03-25T05:13:15;99556.47;;;8.21;100.00
23473;BME280;11909;52.516;13.564;2023-03-25T05:15:44;99555.72;;;8.35;100.00
23473;BME280;11909;52.516;13.564;2023-03-25T05:18:15;99567.91;;;8.23;100.00
23473;BME280;11909;52.516;13.564;2023-03-25T05:20:44;99559.03;;;8.12;100.00
23473;BME280;11909;52.516;13.564;2023-03-25T05:23:16;99564.19;;;8.14;100.00
23473;BME280;11909;52.516;13.564;2023-03-25T05:25:44;99570.50;;;8.14;100.00
23473;BME280;11909;52.516;13.564;2023-03-25T05:28:13;99565.31;;;8.13;100.00
23473;BME280;11909;52.516;13.564;2023-03-25T05:30:42;99571.06;;;8.11;100.00
23473;BME280;11909;52.516;13.564;2023-03-25T05:33:14;99575.97;;;8.14;100.00
23473;BME280;11909;52.516;13.564;2023-03-25T05:35:43;99572.97;;;8.11;100.00
23473;BME280;11909;52.516;13.564;2023-03-25T05:38:12;99566.75;;;8.05;100.00
23473;BME280;11909;52.516;13.564;2023-03-25T05:40:44;99558.56;;;8.05;100.00
23473;BME280;11909;52.516;13.564;2023-03-25T05:43:13;99566.47;;;8.07;100.00
23473;BME280;11909;52.516;13.564;2023-03-25T05:45:41;99574.44;;;8.03;100.00
23473;BME280;11909;52.516;13.564;2023-03-25T05:48:10;99570.44;;;7.95;100.00
23473;BME280;11909;52.516;13.564;2023-03-25T05:50:39;99576.06;;;8.04;100.00
23473;BME280;11909;52.516;13.564;2023-03-25T05:53:09;99580.31;;;8.15;100.00
23473;BME280;11909;52.516;13.564;2023-03-25T05:55:37;99585.72;;;8.21;100.00
23473;BME280;11909;52.516;13.564;2023-03-25T05:58:05;99587.84;;;8.24;100.00
23473;BME280;11909;52.516;13.564;2023-03-25T06:00:33;99579.22;;;8.16;100.00
23473;BME280;11909;52.516;13.564;2023-03-25T06:03:05;99591.84;;;8.31;100.00
23473;BME280;11909;52.516;13.564;2023-03-25T06:05:33;99599.38;;;8.40;100.00
23473;BME280;11909;52.516;13.564;2023-03-25T06:08:03;99589.41;;;8.30;100.00
23473;BME280;11909;52.516;13.564;2023-03-25T06:10:31;99599.19;;;8.36;100.00
23473;BME280;11909;52.516;13.564;2023-03-25T06:12:59;99601.59;;;8.38;100.00
23473;BME280;11909;52.516;13.564;2023-03-25T06:15:27;99592.38;;;8.33;100.00
23473;BME280;11909;52.516;13.564;2023-03-25T06:17:59;99608.69;;;8.39;99.69
23473;BME280;11909;52.516;13.564;2023-03-25T06:20:27;99602.44;;;8.38;99.81
23473;BME280;11909;52.516;13.564;2023-03-25T06:22:55;99606.13;;;8.47;99.37
23473;BME280;11909;52.516;13.564;2023-03-25T06:25:24;99615.75;;;8.45;99.09
23473;BME280;11909;52.516;13.564;2023-03-25T06:27:52;99619.59;;;8.44;98.85
23473;BME280;11909;52.516;13.564;2023-03-25T06:30:21;99615.16;;;8.48;99.29
23473;BME280;11909;52.516;13.564;2023-03-25T06:32:49;99619.34;;;8.40;98.16
23473;BME280;11909;52.516;13.564;2023-03-25T06:35:18;99620.75;;;8.38;97.80
23473;BME280;11909;52.516;13.564;2023-03-25T06:37:47;99618.44;;;8.50;97.35
23473;BME280;11909;52.516;13.564;2023-03-25T06:40:15;99625.19;;;8.58;95.90
23473;BME280;11909;52.516;13.564;2023-03-25T06:42:44;99634.50;;;8.57;95.43
23473;BME280;11909;52.516;13.564;2023-03-25T06:45:12;99622.22;;;8.54;96.17
23473;BME280;11909;52.516;13.564;2023-03-25T06:47:41;99635.44;;;8.66;94.73
23473;BME280;11909;52.516;13.564;2023-03-25T06:50:09;99628.75;;;8.78;94.15
23473;BME280;11909;52.516;13.564;2023-03-25T06:52:37;99631.47;;;8.78;93.84
23473;BME280;11909;52.516;13.564;2023-03-25T06:55:07;99614.59;;;8.70;95.69
23473;BME280;11909;52.516;13.564;2023-03-25T06:57:34;99622.44;;;8.77;94.61
23473;BME280;11909;52.516;13.564;2023-03-25T07:00:06;99627.53;;;8.84;93.61
23473;BME280;11909;52.516;13.564;2023-03-25T07:02:35;99624.38;;;8.77;93.15
23473;BME280;11909;52.516;13.564;2023-03-25T07:05:04;99613.63;;;8.80;93.50
23473;BME280;11909;52.516;13.564;2023-03-25T07:07:31;99623.47;;;8.81;92.99
23473;BME280;11909;52.516;13.564;2023-03-25T07:09:59;99624.56;;;8.80;93.78
23473;BME280;11909;52.516;13.564;2023-03-25T07:12:27;99621.56;;;8.82;93.33
23473;BME280;11909;52.516;13.564;2023-03-25T07:14:55;99622.44;;;8.77;93.55
23473;BME280;11909;52.516;13.564;2023-03-25T07:17:25;99628.78;;;8.72;94.18
23473;BME280;11909;52.516;13.564;2023-03-25T07:19:53;99638.84;;;8.77;94.96
23473;BME280;11909;52.516;13.564;2023-03-25T07:22:21;99634.28;;;8.92;93.62
23473;BME280;11909;52.516;13.564;2023-03-25T07:24:49;99632.06;;;8.94;93.57
23473;BME280;11909;52.516;13.564;2023-03-25T07:27:17;99637.34;;;9.04;92.60
23473;BME280;11909;52.516;13.564;2023-03-25T07:29:45;99636.47;;;9.09;92.04
23473;BME280;11909;52.516;13.564;2023-03-25T07:32:13;99633.75;;;9.09;91.99
23473;BME280;11909;52.516;13.564;2023-03-25T07:34:42;99643.28;;;9.11;90.88
23473;BME280;11909;52.516;13.564;2023-03-25T07:37:10;99636.91;;;9.16;90.86
23473;BME280;11909;52.516;13.564;2023-03-25T07:39:37;99646.38;;;9.24;91.37
23473;BME280;11909;52.516;13.564;2023-03-25T07:42:05;99640.59;;;9.25;91.96
23473;BME280;11909;52.516;13.564;2023-03-25T07:44:33;99647.84;;;9.35;91.44
23473;BME280;11909;52.516;13.564;2023-03-25T07:47:01;99646.53;;;9.46;89.18
23473;BME280;11909;52.516;13.564;2023-03-25T07:49:29;99645.97;;;9.64;87.63
23473;BME280;11909;52.516;13.564;2023-03-25T07:51:58;99657.25;;;9.76;86.48
23473;BME280;11909;52.516;13.564;2023-03-25T07:54:26;99664.88;;;9.79;86.98
23473;BME280;11909;52.516;13.564;2023-03-25T07:56:53;99660.41;;;9.83;85.75
23473;BME280;11909;52.516;13.564;2023-03-25T07:59:21;99676.19;;;10.06;83.18
23473;BME280;11909;52.516;13.564;2023-03-25T08:01:49;99660.16;;;10.13;82.86
23473;BME280;11909;52.516;13.564;2023-03-25T08:04:17;99668.06;;;10.14;80.60
23473;BME280;11909;52.516;13.564;2023-03-25T08:06:45;99687.84;;;10.11;78.34
23473;BME280;11909;52.516;13.564;2023-03-25T08:09:14;99683.81;;;10.09;77.69
23473;BME280;11909;52.516;13.564;2023-03-25T08:11:41;99673.84;;;10.13;78.45
23473;BME280;11909;52.516;13.564;2023-03-25T08:14:09;99662.16;;;10.07;79.22
23473;BME280;11909;52.516;13.564;2023-03-25T08:16:37;99691.09;;;10.13;76.56
23473;BME280;11909;52.516;13.564;2023-03-25T08:19:05;99684.94;;;10.08;76.71
23473;BME280;11909;52.516;13.564;2023-03-25T08:21:33;99691.09;;;10.13;75.64
23473;BME280;11909;52.516;13.564;2023-03-25T08:24:00;99691.41;;;10.12;75.30
23473;BME280;11909;52.516;13.564;2023-03-25T08:26:31;99687.78;;;10.16;74.93
23473;BME280;11909;52.516;13.564;2023-03-25T08:29:01;99689.81;;;10.25;75.30
23473;BME280;11909;52.516;13.564;2023-03-25T08:31:31;99692.28;;;10.40;72.84
23473;BME280;11909;52.516;13.564;2023-03-25T08:34:02;99710.13;;;10.38;72.29
23473;BME280;11909;52.516;13.564;2023-03-25T08:36:30;99701.38;;;10.36;72.56
23473;BME280;11909;52.516;13.564;2023-03-25T08:38:58;99691.53;;;10.35;72.21
23473;BME280;11909;52.516;13.564;2023-03-25T08:41:26;99706.38;;;10.33;70.65
23473;BME280;11909;52.516;13.564;2023-03-25T08:43:55;99693.91;;;10.41;72.70
23473;BME280;11909;52.516;13.564;2023-03-25T08:46:23;99689.44;;;10.45;71.22
23473;BME280;11909;52.516;13.564;2023-03-25T08:48:51;99684.34;;;10.53;71.27
23473;BME280;11909;52.516;13.564;2023-03-25T08:51:19;99693.69;;;10.52;70.00
23473;BME280;11909;52.516;13.564;2023-03-25T08:53:47;99690.66;;;10.53;69.31
23473;BME280;11909;52.516;13.564;2023-03-25T08:56:15;99688.19;;;10.52;69.60
23473;BME280;11909;52.516;13.564;2023-03-25T08:58:43;99689.53;;;10.54;68.51
23473;BME280;11909;52.516;13.564;2023-03-25T09:01:12;99688.38;;;10.69;68.78
23473;BME280;11909;52.516;13.564;2023-03-25T09:03:40;99672.84;;;10.65;69.78
23473;BME280;11909;52.516;13.564;2023-03-25T09:06:08;99692.03;;;10.65;69.52
23473;BME280;11909;52.516;13.564;2023-03-25T09:08:36;99677.28;;;10.74;67.36
23473;BME280;11909;52.516;13.564;2023-03-25T09:11:04;99693.25;;;10.72;66.51
23473;BME280;11909;52.516;13.564;2023-03-25T09:13:32;99687.88;;;10.67;66.74
23473;BME280;11909;52.516;13.564;2023-03-25T09:15:59;99689.63;;;10.63;67.69
23473;BME280;11909;52.516;13.564;2023-03-25T09:18:29;99681.06;;;10.65;68.30
23473;BME280;11909;52.516;13.564;2023-03-25T09:20:57;99686.88;;;10.63;68.39
23473;BME280;11909;52.516;13.564;2023-03-25T09:23:25;99688.53;;;10.50;68.01
23473;BME280;11909;52.516;13.564;2023-03-25T09:25:53;99679.16;;;10.51;68.20
23473;BME280;11909;52.516;13.564;2023-03-25T09:28:21;99682.09;;;10.55;68.36
23473;BME280;11909;52.516;13.564;2023-03-25T09:30:49;99686.38;;;10.61;68.53
23473;BME280;11909;52.516;13.564;2023-03-25T09:33:17;99690.31;;;10.69;67.92
23473;BME280;11909;52.516;13.564;2023-03-25T09:35:47;99692.75;;;10.70;67.09
23473;BME280;11909;52.516;13.564;2023-03-25T09:38:15;99691.63;;;10.71;67.32
23473;BME280;11909;52.516;13.564;2023-03-25T09:40:43;99704.22;;;10.72;66.58
23473;BME280;11909;52.516;13.564;2023-03-25T09:43:23;99692.25;;;10.68;67.81
23473;BME280;11909;52.516;13.564;2023-03-25T09:45:56;99694.25;;;10.76;67.47
23473;BME280;11909;52.516;13.564;2023-03-25T09:48:29;99691.63;;;10.71;67.53
23473;BME280;11909;52.516;13.564;2023-03-25T09:51:02;99698.25;;;10.70;67.25
23473;BME280;11909;52.516;13.564;2023-03-25T09:53:34;99701.59;;;10.67;66.58
23473;BME280;11909;52.516;13.564;2023-03-25T09:56:06;99706.50;;;10.56;65.80
23473;BME280;11909;52.516;13.564;2023-03-25T09:58:40;99713.59;;;10.43;65.27
23473;BME280;11909;52.516;13.564;2023-03-25T10:01:30;99713.00;;;10.46;66.06
23473;BME280;11909;52.516;13.564;2023-03-25T10:04:22;99721.00;;;10.57;65.95
23473;BME280;11909;52.516;13.564;2023-03-25T10:07:04;99711.75;;;10.67;65.70
23473;BME280;11909;52.516;13.564;2023-03-25T10:09:44;99701.28;;;10.69;65.23
23473;BME280;11909;52.516;13.564;2023-03-25T10:12:28;99710.09;;;10.80;64.50
23473;BME280;11909;52.516;13.564;2023-03-25T10:15:08;99717.28;;;11.03;63.47
23473;BME280;11909;52.516;13.564;2023-03-25T10:17:47;99700.63;;;11.00;63.09
23473;BME280;11909;52.516;13.564;2023-03-25T10:20:33;99700.31;;;11.01;63.99
23473;BME280;11909;52.516;13.564;2023-03-25T10:23:09;99703.69;;;10.98;62.27
23473;BME280;11909;52.516;13.564;2023-03-25T10:25:44;99690.78;;;10.99;62.20
23473;BME280;11909;52.516;13.564;2023-03-25T10:28:18;99713.94;;;10.93;62.26
23473;BME280;11909;52.516;13.564;2023-03-25T10:30:48;99707.66;;;10.92;61.71
23473;BME280;11909;52.516;13.564;2023-03-25T10:33:23;99701.47;;;10.86;61.55
23473;BME280;11909;52.516;13.564;2023-03-25T10:35:55;99699.44;;;10.92;62.51
23473;BME280;11909;52.516;13.564;2023-03-25T10:38:27;99699.50;;;11.01;61.95
23473;BME280;11909;52.516;13.564;2023-03-25T10:41:04;99688.81;;;10.99;63.87
23473;BME280;11909;52.516;13.564;2023-03-25T10:43:39;99683.63;;;11.12;61.79
23473;BME280;11909;52.516;13.564;2023-03-25T10:46:16;99690.19;;;11.25;59.91
23473;BME280;11909;52.516;13.564;2023-03-25T10:48:47;99685.38;;;11.30;59.96
23473;BME280;11909;52.516;13.564;2023-03-25T10:51:17;99700.84;;;11.26;58.79
23473;BME280;11909;52.516;13.564;2023-03-25T10:53:48;99691.94;;;11.21;59.38
23473;BME280;11909;52.516;13.564;2023-03-25T10:56:21;99695.81;;;11.19;59.34
23473;BME280;11909;52.516;13.564;2023-03-25T10:58:53;99690.25;;;11.33;60.11
23473;BME280;11909;52.516;13.564;2023-03-25T11:01:33;99684.38;;;11.49;58.98
23473;BME280;11909;52.516;13.564;2023-03-25T11:04:02;99676.44;;;11.70;59.70
23473;BME280;11909;52.516;13.564;2023-03-25T11:06:33;99680.56;;;11.90;58.54
23473;BME280;11909;52.516;13.564;2023-03-25T11:09:12;99682.16;;;12.14;58.18
23473;BME280;11909;52.516;13.564;2023-03-25T11:11:41;99696.38;;;12.08;58.19
23473;BME280;11909;52.516;13.564;2023-03-25T11:14:10;99694.50;;;11.94;57.95
23473;BME280;11909;52.516;13.564;2023-03-25T11:16:41;99675.34;;;12.03;57.54
23473;BME280;11909;52.516;13.564;2023-03-25T11:19:17;99671.16;;;12.14;57.25
23473;BME280;11909;52.516;13.564;2023-03-25T11:21:47;99669.06;;;12.11;58.55
23473;BME280;11909;52.516;13.564;2023-03-25T11:24:22;99666.63;;;12.10;58.12
23473;BME280;11909;52.516;13.564;2023-03-25T11:26:53;99664.69;;;12.10;57.43
23473;BME280;11909;52.516;13.564;2023-03-25T11:29:23;99654.69;;;11.91;57.87
23473;BME280;11909;52.516;13.564;2023-03-25T11:31:57;99651.31;;;11.95;58.83
23473;BME280;11909;52.516;13.564;2023-03-25T11:34:31;99652.25;;;12.13;57.79
23473;BME280;11909;52.516;13.564;2023-03-25T11:37:00;99653.53;;;12.15;57.86
23473;BME280;11909;52.516;13.564;2023-03-25T11:39:34;99649.31;;;12.09;58.21
23473;BME280;11909;52.516;13.564;2023-03-25T11:42:13;99648.44;;;12.00;58.13
23473;BME280;11909;52.516;13.564;2023-03-25T11:44:48;99644.19;;;11.94;58.86
23473;BME280;11909;52.516;13.564;2023-03-25T11:47:20;99664.41;;;11.89;58.34
23473;BME280;11909;52.516;13.564;2023-03-25T11:49:51;99648.91;;;11.93;59.46
23473;BME280;11909;52.516;13.564;2023-03-25T11:52:22;99643.25;;;11.98;60.89
23473;BME280;11909;52.516;13.564;2023-03-25T11:54:54;99632.56;;;11.88;62.46
23473;BME280;11909;52.516;13.564;2023-03-25T11:57:24;99638.91;;;11.66;64.73
23473;BME280;11909;52.516;13.564;2023-03-25T12:00:00;99628.22;;;11.41;65.77
23473;BME280;11909;52.516;13.564;2023-03-25T12:02:36;99626.59;;;11.31;65.18
23473;BME280;11909;52.516;13.564;2023-03-25T12:05:11;99630.06;;;11.23;66.34
23473;BME280;11909;52.516;13.564;2023-03-25T12:07:41;99625.84;;;11.71;63.38
23473;BME280;11909;52.516;13.564;2023-03-25T12:10:17;99634.53;;;11.96;60.75
23473;BME280;11909;52.516;13.564;2023-03-25T12:12:52;99640.72;;;12.11;59.59
23473;BME280;11909;52.516;13.564;2023-03-25T12:15:27;99631.34;;;12.03;59.69
23473;BME280;11909;52.516;13.564;2023-03-25T12:18:10;99631.13;;;11.99;59.41
23473;BME280;11909;52.516;13.564;2023-03-25T12:20:53;99628.63;;;12.12;59.04
23473;BME280;11909;52.516;13.564;2023-03-25T12:23:31;99620.53;;;12.15;60.13
23473;BME280;11909;52.516;13.564;2023-03-25T12:26:08;99618.47;;;12.21;58.99
23473;BME280;11909;52.516;13.564;2023-03-25T12:31:35;99605.84;;;12.20;59.24
23473;BME280;11909;52.516;13.564;2023-03-25T12:34:14;99598.06;;;12.22;59.31
23473;BME280;11909;52.516;13.564;2023-03-25T12:36:53;99609.06;;;12.22;59.91
23473;BME280;11909;52.516;13.564;2023-03-25T12:39:38;99618.91;;;12.14;57.83
23473;BME280;11909;52.516;13.564;2023-03-25T12:42:20;99614.22;;;12.06;56.48
23473;BME280;11909;52.516;13.564;2023-03-25T12:45:05;99611.66;;;12.18;56.12
23473;BME280;11909;52.516;13.564;2023-03-25T12:47:47;99598.06;;;12.22;56.58
23473;BME280;11909;52.516;13.564;2023-03-25T12:50:24;99600.00;;;12.22;57.27
23473;BME280;11909;52.516;13.564;2023-03-25T12:53:03;99594.69;;;12.34;57.71
23473;BME280;11909;52.516;13.564;2023-03-25T12:55:49;99618.00;;;12.28;58.31
23473;BME280;11909;52.516;13.564;2023-03-25T12:58:45;99599.03;;;12.17;57.68
23473;BME280;11909;52.516;13.564;2023-03-25T13:01:21;99594.84;;;12.20;58.00
23473;BME280;11909;52.516;13.564;2023-03-25T13:04:17;99584.81;;;12.24;57.52
23473;BME280;11909;52.516;13.564;2023-03-25T13:06:55;99581.25;;;12.32;57.66
23473;BME280;11909;52.516;13.564;2023-03-25T13:09:30;99578.88;;;12.48;57.86
23473;BME280;11909;52.516;13.564;2023-03-25T13:12:02;99567.22;;;12.52;57.19
23473;BME280;11909;52.516;13.564;2023-03-25T13:14:35;99580.13;;;12.42;56.80
23473;BME280;11909;52.516;13.564;2023-03-25T13:17:07;99585.00;;;12.37;56.61
23473;BME280;11909;52.516;13.564;2023-03-25T13:19:38;99583.03;;;12.28;57.94
23473;BME280;11909;52.516;13.564;2023-03-25T13:22:16;99577.34;;;12.16;58.63